sensor_id;sensor_type;location;lat;lon;timestamp;pressure;altitude;pressure_sealevel;temperature;humidity
20444;BME280;10381;53.730;10.010;2023-01-29T00:01:51;102243.34;;;1.46;100.00
20444;BME280;10381;53.730;10.010;2023-01-29T00:05:51;102244.16;;;1.48;100.00
20444;BME280;10381;53.730;10.010;2023-01-29T00:09:52;102233.69;;;1.50;100.00
20444;BME280;10381;53.730;10.010;2023-01-29T00:13:52;102240.59;;;1.51;100.00
20444;BME280;10381;53.730;10.010;2023-01-29T00:17:53;102225.84;;;1.50;100.00
20444;BME280;10381;53.730;10.010;2023-01-29T00:21:53;102204.97;;;1.48;100.00
20444;BME280;10381;53.730;10.010;2023-01-29T00:25:53;102202.34;;;1.50;100.00
20444;BME280;10381;53.730;10.010;2023-01-29T00:29:54;102197.09;;;1.52;100.00
20444;BME280;10381;53.730;10.010;2023-01-29T00:34:12;102196.13;;;1.54;100.00
20444;BME280;10381;53.730;10.010;2023-01-29T00:38:13;102192.59;;;1.57;100.00
20444;BME280;10381;53.730;10.010;2023-01-29T00:42:13;102196.91;;;1.58;100.00
20444;BME280;10381;53.730;10.010;2023-01-29T00:46:33;102188.22;;;1.57;100.00
20444;BME280;10381;53.730;10.010;2023-01-29T00:50:33;102205.50;;;1.61;100.00
20444;BME280;10381;53.730;10.010;2023-01-29T00:54:33;102207.19;;;1.64;100.00
20444;BME280;10381;53.730;10.010;2023-01-29T00:58:34;102207.13;;;1.65;100.00
20444;BME280;10381;53.730;10.010;2023-01-29T01:02:35;102203.63;;;1.66;100.00
20444;BME280;10381;53.730;10.010;2023-01-29T01:06:54;102204.38;;;1.70;100.00
20444;BME280;10381;53.730;10.010;2023-01-29T01:11:02;102202.63;;;1.70;100.00
20444;BME280;10381;53.730;10.010;2023-01-29T01:15:03;102196.50;;;1.72;100.00
20444;BME280;10381;53.730;10.010;2023-01-29T01:19:04;102194.72;;;1.74;100.00
20444;BME280;10381;53.730;10.010;2023-01-29T01:23:04;102199.84;;;1.77;100.00
20444;BME280;10381;53.730;10.010;2023-01-29T01:27:05;102213.72;;;1.79;100.00
20444;BME280;10381;53.730;10.010;2023-01-29T01:31:12;102194.44;;;1.83;100.00
20444;BME280;10381;53.730;10.010;2023-01-29T01:35:13;102189.22;;;1.83;100.00
20444;BME280;10381;53.730;10.010;2023-01-29T01:39:13;102194.34;;;1.86;100.00
20444;BME280;10381;53.730;10.010;2023-01-29T01:43:14;102187.41;;;1.85;100.00
20444;BME280;10381;53.730;10.010;2023-01-29T01:47:14;102183.06;;;1.85;100.00
20444;BME280;10381;53.730;10.010;2023-01-29T01:51:16;102182.94;;;1.88;100.00
20444;BME280;10381;53.730;10.010;2023-01-29T01:55:18;102182.88;;;1.90;100.00
20444;BME280;10381;53.730;10.010;2023-01-29T01:59:21;102180.28;;;1.90;100.00
20444;BME280;10381;53.730;10.010;2023-01-29T02:03:23;102189.84;;;1.91;100.00
20444;BME280;10381;53.730;10.010;2023-01-29T02:07:45;102184.59;;;1.92;100.00
20444;BME280;10381;53.730;10.010;2023-01-29T02:12:09;102177.53;;;1.95;100.00
20444;BME280;10381;53.730;10.010;2023-01-29T02:16:10;102170.59;;;1.94;100.00
20444;BME280;10381;53.730;10.010;2023-01-29T02:20:19;102166.22;;;1.94;100.00
20444;BME280;10381;53.730;10.010;2023-01-29T02:29:22;102149.66;;;1.95;100.00
20444;BME280;10381;53.730;10.010;2023-01-29T02:33:40;102157.50;;;1.95;100.00
20444;BME280;10381;53.730;10.010;2023-01-29T02:37:56;102142.66;;;1.96;100.00
20444;BME280;10381;53.730;10.010;2023-01-29T02:42:10;102144.31;;;1.98;100.00
20444;BME280;10381;53.730;10.010;2023-01-29T02:51:01;102133.06;;;1.96;100.00
20444;BME280;10381;53.730;10.010;2023-01-29T02:55:10;102119.94;;;1.98;100.00
20444;BME280;10381;53.730;10.010;2023-01-29T02:59:17;102106.91;;;1.96;100.00
20444;BME280;10381;53.730;10.010;2023-01-29T03:03:22;102104.31;;;1.96;100.00
20444;BME280;10381;53.730;10.010;2023-01-29T03:07:29;102093.03;;;1.94;100.00
20444;BME280;10381;53.730;10.010;2023-01-29T03:11:48;102087.81;;;1.94;100.00
20444;BME280;10381;53.730;10.010;2023-01-29T03:15:58;102089.53;;;1.95;100.00
20444;BME280;10381;53.730;10.010;2023-01-29T03:20:02;102084.31;;;1.95;100.00
20444;BME280;10381;53.730;10.010;2023-01-29T03:24:08;102072.91;;;1.98;100.00
20444;BME280;10381;53.730;10.010;2023-01-29T03:28:29;102078.06;;;1.99;100.00
20444;BME280;10381;53.730;10.010;2023-01-29T03:32:49;102081.44;;;2.03;100.00
20444;BME280;10381;53.730;10.010;2023-01-29T03:36:54;102067.53;;;2.02;100.00
20444;BME280;10381;53.730;10.010;2023-01-29T03:41:03;102063.09;;;2.04;100.00
20444;BME280;10381;53.730;10.010;2023-01-29T03:45:16;102073.50;;;2.06;100.00
20444;BME280;10381;53.730;10.010;2023-01-29T03:49:40;102069.03;;;2.09;100.00
20444;BME280;10381;53.730;10.010;2023-01-29T03:53:52;102068.13;;;2.10;100.00
20444;BME280;10381;53.730;10.010;2023-01-29T03:58:04;102061.19;;;2.09;100.00
20444;BME280;10381;53.730;10.010;2023-01-29T04:02:12;102055.06;;;2.10;100.00
20444;BME280;10381;53.730;10.010;2023-01-29T04:06:20;102058.53;;;2.11;100.00
20444;BME280;10381;53.730;10.010;2023-01-29T04:10:24;102054.06;;;2.15;100.00
20444;BME280;10381;53.730;10.010;2023-01-29T04:14:25;102054.06;;;2.15;100.00
20444;BME280;10381;53.730;10.010;2023-01-29T04:18:26;102061.78;;;2.18;100.00
20444;BME280;10381;53.730;10.010;2023-01-29T04:22:37;102054.88;;;2.17;100.00
20444;BME280;10381;53.730;10.010;2023-01-29T04:31:11;102059.28;;;2.15;100.00
20444;BME280;10381;53.730;10.010;2023-01-29T04:35:39;102056.75;;;2.11;100.00
20444;BME280;10381;53.730;10.010;2023-01-29T04:39:52;102058.53;;;2.11;100.00
20444;BME280;10381;53.730;10.010;2023-01-29T04:44:01;102060.25;;;2.12;100.00
20444;BME280;10381;53.730;10.010;2023-01-29T04:48:23;102073.34;;;2.10;100.00
20444;BME280;10381;53.730;10.010;2023-01-29T04:52:31;102063.75;;;2.11;100.00
20444;BME280;10381;53.730;10.010;2023-01-29T04:57:05;102053.41;;;2.08;100.00
20444;BME280;10381;53.730;10.010;2023-01-29T05:01:12;102038.56;;;2.08;100.00
20444;BME280;10381;53.730;10.010;2023-01-29T05:05:15;102028.19;;;2.07;100.00
20444;BME280;10381;53.730;10.010;2023-01-29T05:09:17;102033.44;;;2.05;100.00
20444;BME280;10381;53.730;10.010;2023-01-29T05:13:19;102019.56;;;2.03;100.00
20444;BME280;10381;53.730;10.010;2023-01-29T05:17:21;102025.63;;;2.04;100.00
20444;BME280;10381;53.730;10.010;2023-01-29T05:21:22;102031.94;;;1.98;100.00
20444;BME280;10381;53.730;10.010;2023-01-29T05:25:26;102034.44;;;2.01;100.00
20444;BME280;10381;53.730;10.010;2023-01-29T05:29:27;102022.47;;;1.94;100.00
20444;BME280;10381;53.730;10.010;2023-01-29T05:33:29;102021.78;;;1.89;100.00
20444;BME280;10381;53.730;10.010;2023-01-29T05:37:29;102013.97;;;1.87;100.00
20444;BME280;10381;53.730;10.010;2023-01-29T05:41:30;102028.00;;;1.85;100.00
20444;BME280;10381;53.730;10.010;2023-01-29T05:45:31;102029.75;;;1.84;100.00
20444;BME280;10381;53.730;10.010;2023-01-29T05:49:31;102031.47;;;1.85;100.00
20444;BME280;10381;53.730;10.010;2023-01-29T05:53:32;102035.09;;;1.81;100.00
20444;BME280;10381;53.730;10.010;2023-01-29T05:57:32;102031.63;;;1.81;100.00
20444;BME280;10381;53.730;10.010;2023-01-29T06:01:32;102011.59;;;1.80;100.00
20444;BME280;10381;53.730;10.010;2023-01-29T06:05:36;102018.63;;;1.78;100.00
20444;BME280;10381;53.730;10.010;2023-01-29T06:09:37;102000.47;;;1.75;100.00
20444;BME280;10381;53.730;10.010;2023-01-29T06:13:37;101995.34;;;1.72;100.00
20444;BME280;10381;53.730;10.010;2023-01-29T06:17:40;101992.84;;;1.68;100.00
20444;BME280;10381;53.730;10.010;2023-01-29T06:21:41;101981.56;;;1.66;100.00
20444;BME280;10381;53.730;10.010;2023-01-29T06:25:41;101969.41;;;1.65;100.00
20444;BME280;10381;53.730;10.010;2023-01-29T06:29:41;101964.31;;;1.61;100.00
20444;BME280;10381;53.730;10.010;2023-01-29T06:33:42;101961.66;;;1.62;100.00
20444;BME280;10381;53.730;10.010;2023-01-29T06:37:42;101969.59;;;1.59;100.00
20444;BME280;10381;53.730;10.010;2023-01-29T06:41:42;101972.94;;;1.64;100.00
20444;BME280;10381;53.730;10.010;2023-01-29T06:45:48;101958.13;;;1.63;100.00
20444;BME280;10381;53.730;10.010;2023-01-29T06:49:49;101957.25;;;1.64;100.00
20444;BME280;10381;53.730;10.010;2023-01-29T06:53:49;101947.78;;;1.60;100.00
20444;BME280;10381;53.730;10.010;2023-01-29T06:57:50;101951.31;;;1.59;100.00
20444;BME280;10381;53.730;10.010;2023-01-29T07:01:50;101946.97;;;1.58;100.00
20444;BME280;10381;53.730;10.010;2023-01-29T07:05:51;101946.72;;;1.66;100.00
20444;BME280;10381;53.730;10.010;2023-01-29T07:09:51;101962.50;;;1.63;100.00
20444;BME280;10381;53.730;10.010;2023-01-29T07:13:52;101958.22;;;1.62;100.00
20444;BME280;10381;53.730;10.010;2023-01-29T07:17:58;101956.56;;;1.59;100.00
20444;BME280;10381;53.730;10.010;2023-01-29T07:21:59;101960.75;;;1.63;100.00
20444;BME280;10381;53.730;10.010;2023-01-29T07:26:04;101951.09;;;1.65;100.00
20444;BME280;10381;53.730;10.010;2023-01-29T07:30:05;101946.00;;;1.62;100.00
20444;BME280;10381;53.730;10.010;2023-01-29T07:34:05;101930.97;;;1.69;100.00
20444;BME280;10381;53.730;10.010;2023-01-29T07:38:07;101927.53;;;1.68;100.00
20444;BME280;10381;53.730;10.010;2023-01-29T07:42:07;101928.44;;;1.66;100.00
20444;BME280;10381;53.730;10.010;2023-01-29T07:46:07;101934.63;;;1.63;100.00
20444;BME280;10381;53.730;10.010;2023-01-29T07:50:08;101930.44;;;1.59;100.00
20444;BME280;10381;53.730;10.010;2023-01-29T07:54:09;101929.47;;;1.62;100.00
20444;BME280;10381;53.730;10.010;2023-01-29T07:58:09;101939.16;;;1.58;100.00
20444;BME280;10381;53.730;10.010;2023-01-29T08:02:09;101927.13;;;1.54;100.00
20444;BME280;10381;53.730;10.010;2023-01-29T08:06:09;101930.44;;;1.59;100.00
20444;BME280;10381;53.730;10.010;2023-01-29T08:10:10;101924.25;;;1.62;100.00
20444;BME280;10381;53.730;10.010;2023-01-29T08:14:11;101929.66;;;1.56;100.00
20444;BME280;10381;53.730;10.010;2023-01-29T08:18:12;101916.19;;;1.68;100.00
20444;BME280;10381;53.730;10.010;2023-01-29T08:22:12;101923.22;;;1.66;100.00
20444;BME280;10381;53.730;10.010;2023-01-29T08:26:15;101932.75;;;1.68;100.00
20444;BME280;10381;53.730;10.010;2023-01-29T08:30:15;101931.03;;;1.67;100.00
20444;BME280;10381;53.730;10.010;2023-01-29T08:34:16;101933.44;;;1.74;100.00
20444;BME280;10381;53.730;10.010;2023-01-29T08:38:16;101923.72;;;1.77;100.00
20444;BME280;10381;53.730;10.010;2023-01-29T08:42:17;101927.19;;;1.78;100.00
20444;BME280;10381;53.730;10.010;2023-01-29T08:46:17;101923.38;;;1.88;100.00
20444;BME280;10381;53.730;10.010;2023-01-29T08:50:18;101928.50;;;1.91;100.00
20444;BME280;10381;53.730;10.010;2023-01-29T08:54:18;101925.78;;;1.94;100.00
20444;BME280;10381;53.730;10.010;2023-01-29T08:58:18;101930.97;;;1.96;100.00
20444;BME280;10381;53.730;10.010;2023-01-29T09:02:19;101933.47;;;1.99;100.00
20444;BME280;10381;53.730;10.010;2023-01-29T09:06:19;101934.22;;;2.02;100.00
20444;BME280;10381;53.730;10.010;2023-01-29T09:10:19;101929.97;;;2.00;100.00
20444;BME280;10381;53.730;10.010;2023-01-29T09:14:20;101921.25;;;1.99;100.00
20444;BME280;10381;53.730;10.010;2023-01-29T09:18:20;101921.00;;;2.07;100.00
20444;BME280;10381;53.730;10.010;2023-01-29T09:22:21;101924.50;;;2.06;100.00
20444;BME280;10381;53.730;10.010;2023-01-29T09:26:21;101922.97;;;2.00;100.00
20444;BME280;10381;53.730;10.010;2023-01-29T09:30:21;101911.69;;;1.98;100.00
20444;BME280;10381;53.730;10.010;2023-01-29T09:34:21;101909.66;;;2.06;100.00
20444;BME280;10381;53.730;10.010;2023-01-29T09:38:22;101914.97;;;2.05;100.00
20444;BME280;10381;53.730;10.010;2023-01-29T09:42:46;101904.44;;;2.06;100.00
20444;BME280;10381;53.730;10.010;2023-01-29T09:46:51;101890.56;;;2.04;100.00
20444;BME280;10381;53.730;10.010;2023-01-29T09:50:54;101882.47;;;2.12;100.00
20444;BME280;10381;53.730;10.010;2023-01-29T09:55:26;101864.09;;;2.13;100.00
20444;BME280;10381;53.730;10.010;2023-01-29T09:59:30;101860.38;;;2.21;100.00
20444;BME280;10381;53.730;10.010;2023-01-29T10:04:02;101856.09;;;2.18;100.00
20444;BME280;10381;53.730;10.010;2023-01-29T10:16:40;101838.25;;;2.29;100.00
20444;BME280;10381;53.730;10.010;2023-01-29T10:25:23;101824.19;;;2.33;100.00
20444;BME280;10381;53.730;10.010;2023-01-29T10:29:24;101826.59;;;2.38;100.00
20444;BME280;10381;53.730;10.010;2023-01-29T10:33:31;101824.72;;;2.42;100.00
20444;BME280;10381;53.730;10.010;2023-01-29T10:37:39;101823.72;;;2.46;100.00
20444;BME280;10381;53.730;10.010;2023-01-29T10:42:03;101800.09;;;2.47;100.00
20444;BME280;10381;53.730;10.010;2023-01-29T10:50:51;101793.03;;;2.49;100.00
20444;BME280;10381;53.730;10.010;2023-01-29T10:59:35;101779.00;;;2.52;100.00
20444;BME280;10381;53.730;10.010;2023-01-29T11:03:38;101771.91;;;2.55;100.00
20444;BME280;10381;53.730;10.010;2023-01-29T11:07:39;101773.47;;;2.60;100.00
20444;BME280;10381;53.730;10.010;2023-01-29T11:11:47;101771.63;;;2.62;100.00
20444;BME280;10381;53.730;10.010;2023-01-29T11:15:51;101768.13;;;2.63;100.00
20444;BME280;10381;53.730;10.010;2023-01-29T11:19:53;101765.50;;;2.63;100.00
20444;BME280;10381;53.730;10.010;2023-01-29T11:24:10;101764.47;;;2.67;100.00
20444;BME280;10381;53.730;10.010;2023-01-29T11:28:11;101760.94;;;2.68;100.00
20444;BME280;10381;53.730;10.010;2023-01-29T11:36:34;101751.94;;;2.75;100.00
20444;BME280;10381;53.730;10.010;2023-01-29T11:40:39;101746.72;;;2.75;100.00
20444;BME280;10381;53.730;10.010;2023-01-29T11:44:41;101725.63;;;2.78;100.00
20444;BME280;10381;53.730;10.010;2023-01-29T11:48:47;101728.19;;;2.80;100.00
20444;BME280;10381;53.730;10.010;2023-01-29T11:52:50;101720.22;;;2.83;100.00
20444;BME280;10381;53.730;10.010;2023-01-29T11:56:50;101719.19;;;2.87;100.00
20444;BME280;10381;53.730;10.010;2023-01-29T12:00:51;101717.38;;;2.89;100.00
20444;BME280;10381;53.730;10.010;2023-01-29T12:04:55;101726.97;;;2.88;100.00
20444;BME280;10381;53.730;10.010;2023-01-29T12:08:59;101700.78;;;2.88;100.00
20444;BME280;10381;53.730;10.010;2023-01-29T12:13:05;101693.84;;;2.87;100.00
20444;BME280;10381;53.730;10.010;2023-01-29T12:17:18;101679.75;;;2.91;100.00
20444;BME280;10381;53.730;10.010;2023-01-29T12:21:31;101667.81;;;2.84;100.00
20444;BME280;10381;53.730;10.010;2023-01-29T12:25:55;101659.84;;;2.87;100.00
20444;BME280;10381;53.730;10.010;2023-01-29T12:30:12;101649.31;;;2.89;100.00
20444;BME280;10381;53.730;10.010;2023-01-29T12:38:23;101635.94;;;2.95;100.00
20444;BME280;10381;53.730;10.010;2023-01-29T12:42:24;101643.81;;;2.95;100.00
20444;BME280;10381;53.730;10.010;2023-01-29T12:46:27;101636.00;;;2.93;100.00
20444;BME280;10381;53.730;10.010;2023-01-29T12:50:34;101611.59;;;2.93;100.00
20444;BME280;10381;53.730;10.010;2023-01-29T12:54:38;101609.72;;;2.96;100.00
20444;BME280;10381;53.730;10.010;2023-01-29T12:58:44;101599.88;;;3.02;100.00
20444;BME280;10381;53.730;10.010;2023-01-29T13:03:00;101598.41;;;2.96;100.00
20444;BME280;10381;53.730;10.010;2023-01-29T13:07:18;101589.47;;;3.00;100.00
20444;BME280;10381;53.730;10.010;2023-01-29T13:11:32;101584.25;;;3.00;100.00
20444;BME280;10381;53.730;10.010;2023-01-29T13:15:37;101574.91;;;2.94;100.00
20444;BME280;10381;53.730;10.010;2023-01-29T13:19:43;101561.66;;;2.97;100.00
20444;BME280;10381;53.730;10.010;2023-01-29T13:23:48;101567.84;;;2.96;100.00
20444;BME280;10381;53.730;10.010;2023-01-29T13:27:49;101559.06;;;2.97;100.00
20444;BME280;10381;53.730;10.010;2023-01-29T13:31:52;101545.19;;;2.95;100.00
20444;BME280;10381;53.730;10.010;2023-01-29T13:35:57;101545.13;;;2.97;100.00
20444;BME280;10381;53.730;10.010;2023-01-29T13:39:59;101534.59;;;2.98;100.00
20444;BME280;10381;53.730;10.010;2023-01-29T13:44:01;101527.50;;;3.01;100.00
20444;BME280;10381;53.730;10.010;2023-01-29T13:48:27;101527.63;;;2.97;100.00
20444;BME280;10381;53.730;10.010;2023-01-29T13:52:45;101514.56;;;2.97;100.00
20444;BME280;10381;53.730;10.010;2023-01-29T14:00:55;101507.34;;;3.03;100.00
20444;BME280;10381;53.730;10.010;2023-01-29T14:13:36;101490.63;;;3.05;100.00
20444;BME280;10381;53.730;10.010;2023-01-29T14:17:37;101481.38;;;2.98;100.00
20444;BME280;10381;53.730;10.010;2023-01-29T14:21:37;101469.28;;;2.95;100.00
20444;BME280;10381;53.730;10.010;2023-01-29T14:25:39;101460.31;;;3.01;100.00
20444;BME280;10381;53.730;10.010;2023-01-29T14:29:40;101457.59;;;3.03;100.00
20444;BME280;10381;53.730;10.010;2023-01-29T14:33:40;101449.69;;;3.04;100.00
20444;BME280;10381;53.730;10.010;2023-01-29T14:37:46;101442.81;;;3.02;100.00
20444;BME280;10381;53.730;10.010;2023-01-29T14:41:49;101451.03;;;2.94;100.00
20444;BME280;10381;53.730;10.010;2023-01-29T14:45:50;101452.78;;;2.93;100.00
20444;BME280;10381;53.730;10.010;2023-01-29T14:49:54;101442.47;;;2.90;100.00
20444;BME280;10381;53.730;10.010;2023-01-29T14:54:01;101432.84;;;2.91;100.00
20444;BME280;10381;53.730;10.010;2023-01-29T14:58:03;101438.94;;;2.91;100.00
20444;BME280;10381;53.730;10.010;2023-01-29T15:02:17;101436.44;;;2.88;100.00
20444;BME280;10381;53.730;10.010;2023-01-29T15:06:24;101424.34;;;2.86;100.00
20444;BME280;10381;53.730;10.010;2023-01-29T15:10:39;101420.00;;;2.86;100.00
20444;BME280;10381;53.730;10.010;2023-01-29T15:14:51;101433.91;;;2.87;100.00
20444;BME280;10381;53.730;10.010;2023-01-29T15:19:06;101422.66;;;2.85;100.00
20444;BME280;10381;53.730;10.010;2023-01-29T15:23:28;101407.81;;;2.85;100.00
20444;BME280;10381;53.730;10.010;2023-01-29T15:27:29;101412.25;;;2.83;100.00
20444;BME280;10381;53.730;10.010;2023-01-29T15:31:30;101397.63;;;2.79;100.00
20444;BME280;10381;53.730;10.010;2023-01-29T15:35:36;101389.84;;;2.77;100.00
20444;BME280;10381;53.730;10.010;2023-01-29T15:39:41;101387.44;;;2.73;100.00
20444;BME280;10381;53.730;10.010;2023-01-29T15:43:45;101370.13;;;2.70;100.00
20444;BME280;10381;53.730;10.010;2023-01-29T15:47:46;101362.28;;;2.70;100.00
20444;BME280;10381;53.730;10.010;2023-01-29T15:51:47;101362.28;;;2.70;100.00
20444;BME280;10381;53.730;10.010;2023-01-29T15:55:47;101351.19;;;2.65;100.00
20444;BME280;10381;53.730;10.010;2023-01-29T15:59:52;101354.56;;;2.67;100.00
20444;BME280;10381;53.730;10.010;2023-01-29T16:03:56;101354.78;;;2.63;100.00
20444;BME280;10381;53.730;10.010;2023-01-29T16:08:01;101339.09;;;2.63;100.00
20444;BME280;10381;53.730;10.010;2023-01-29T16:12:02;101348.78;;;2.61;100.00
20444;BME280;10381;53.730;10.010;2023-01-29T16:24:45;101338.66;;;2.53;100.00
20444;BME280;10381;53.730;10.010;2023-01-29T16:28:47;101336.09;;;2.51;100.00
20444;BME280;10381;53.730;10.010;2023-01-29T16:32:48;101329.94;;;2.52;100.00
20444;BME280;10381;53.730;10.010;2023-01-29T16:36:48;101337.78;;;2.52;100.00
20444;BME280;10381;53.730;10.010;2023-01-29T16:41:06;101330.03;;;2.51;100.00
20444;BME280;10381;53.730;10.010;2023-01-29T16:45:25;101317.94;;;2.48;100.00
20444;BME280;10381;53.730;10.010;2023-01-29T16:53:30;101307.13;;;2.37;100.00
20444;BME280;10381;53.730;10.010;2023-01-29T16:57:32;101300.22;;;2.36;100.00
20444;BME280;10381;53.730;10.010;2023-01-29T17:01:34;101279.28;;;2.36;100.00
20444;BME280;10381;53.730;10.010;2023-01-29T17:05:36;101288.97;;;2.34;100.00
20444;BME280;10381;53.730;10.010;2023-01-29T17:09:37;101271.50;;;2.34;100.00
20444;BME280;10381;53.730;10.010;2023-01-29T17:13:43;101269.72;;;2.35;100.00
20444;BME280;10381;53.730;10.010;2023-01-29T17:17:44;101270.66;;;2.34;100.00
20444;BME280;10381;53.730;10.010;2023-01-29T17:21:48;101257.66;;;2.32;100.00
20444;BME280;10381;53.730;10.010;2023-01-29T17:25:48;101245.41;;;2.33;100.00
20444;BME280;10381;53.730;10.010;2023-01-29T17:29:48;101254.88;;;2.35;100.00
20444;BME280;10381;53.730;10.010;2023-01-29T17:33:49;101235.88;;;2.32;100.00
20444;BME280;10381;53.730;10.010;2023-01-29T17:37:49;101244.56;;;2.32;100.00
20444;BME280;10381;53.730;10.010;2023-01-29T17:41:54;101241.28;;;2.29;100.00
20444;BME280;10381;53.730;10.010;2023-01-29T17:45:55;101232.03;;;2.22;100.00
20444;BME280;10381;53.730;10.010;2023-01-29T17:49:55;101219.22;;;2.16;100.00
20444;BME280;10381;53.730;10.010;2023-01-29T17:53:57;101212.44;;;2.11;100.00
20444;BME280;10381;53.730;10.010;2023-01-29T17:57:57;101211.00;;;2.04;100.00
20444;BME280;10381;53.730;10.010;2023-01-29T18:01:58;101205.03;;;2.02;100.00
20444;BME280;10381;53.730;10.010;2023-01-29T18:05:59;101193.66;;;2.03;100.00
20444;BME280;10381;53.730;10.010;2023-01-29T18:09:59;101184.19;;;2.01;100.00
20444;BME280;10381;53.730;10.010;2023-01-29T18:14:00;101183.34;;;2.00;100.00
20444;BME280;10381;53.730;10.010;2023-01-29T18:18:00;101171.19;;;1.99;100.00
20444;BME280;10381;53.730;10.010;2023-01-29T18:22:00;101159.88;;;1.99;100.00
20444;BME280;10381;53.730;10.010;2023-01-29T18:26:01;101145.06;;;1.99;100.00
20444;BME280;10381;53.730;10.010;2023-01-29T18:30:01;101143.38;;;1.98;100.00
20444;BME280;10381;53.730;10.010;2023-01-29T18:34:01;101132.91;;;1.98;100.00
20444;BME280;10381;53.730;10.010;2023-01-29T18:38:02;101134.59;;;1.99;100.00
20444;BME280;10381;53.730;10.010;2023-01-29T18:42:03;101118.06;;;1.99;100.00
20444;BME280;10381;53.730;10.010;2023-01-29T18:46:03;101125.06;;;1.98;100.00
20444;BME280;10381;53.730;10.010;2023-01-29T18:50:06;101124.16;;;1.99;100.00
20444;BME280;10381;53.730;10.010;2023-01-29T18:54:10;101106.78;;;1.98;100.00
20444;BME280;10381;53.730;10.010;2023-01-29T18:58:12;101097.94;;;2.01;100.00
20444;BME280;10381;53.730;10.010;2023-01-29T19:02:16;101090.13;;;2.01;100.00
20444;BME280;10381;53.730;10.010;2023-01-29T19:06:18;101093.50;;;2.03;100.00
20444;BME280;10381;53.730;10.010;2023-01-29T19:10:18;101075.22;;;2.03;100.00
20444;BME280;10381;53.730;10.010;2023-01-29T19:14:18;101071.59;;;2.05;100.00
20444;BME280;10381;53.730;10.010;2023-01-29T19:18:19;101056.09;;;2.02;100.00
20444;BME280;10381;53.730;10.010;2023-01-29T19:22:19;101044.47;;;2.08;100.00
20444;BME280;10381;53.730;10.010;2023-01-29T19:26:20;101044.47;;;2.08;100.00
20444;BME280;10381;53.730;10.010;2023-01-29T19:30:20;101040.19;;;2.07;100.00
20444;BME280;10381;53.730;10.010;2023-01-29T19:34:20;101033.94;;;2.09;100.00
20444;BME280;10381;53.730;10.010;2023-01-29T19:38:20;101024.56;;;2.05;100.00
20444;BME280;10381;53.730;10.010;2023-01-29T19:42:21;101010.72;;;2.03;100.00
20444;BME280;10381;53.730;10.010;2023-01-29T19:46:21;101006.19;;;2.07;100.00
20444;BME280;10381;53.730;10.010;2023-01-29T19:50:21;101003.66;;;2.05;100.00
20444;BME280;10381;53.730;10.010;2023-01-29T19:54:22;100996.59;;;2.07;100.00
20444;BME280;10381;53.730;10.010;2023-01-29T19:58:22;100994.81;;;2.08;100.00
20444;BME280;10381;53.730;10.010;2023-01-29T20:02:25;100996.59;;;2.07;100.00
20444;BME280;10381;53.730;10.010;2023-01-29T20:06:28;100989.53;;;2.09;100.00
20444;BME280;10381;53.730;10.010;2023-01-29T20:10:29;100978.97;;;2.11;100.00
20444;BME280;10381;53.730;10.010;2023-01-29T20:14:30;100970.44;;;2.07;100.00
20444;BME280;10381;53.730;10.010;2023-01-29T20:18:31;100948.78;;;2.05;100.00
20444;BME280;10381;53.730;10.010;2023-01-29T20:22:31;100953.06;;;2.06;100.00
20444;BME280;10381;53.730;10.010;2023-01-29T20:26:31;100938.25;;;2.07;100.00
20444;BME280;10381;53.730;10.010;2023-01-29T20:30:33;100942.53;;;2.08;100.00
20444;BME280;10381;53.730;10.010;2023-01-29T20:34:34;100927.81;;;2.07;100.00
20444;BME280;10381;53.730;10.010;2023-01-29T20:38:34;100926.78;;;2.09;100.00
20444;BME280;10381;53.730;10.010;2023-01-29T20:42:35;100918.03;;;2.10;100.00
20444;BME280;10381;53.730;10.010;2023-01-29T20:46:35;100910.00;;;2.13;100.00
20444;BME280;10381;53.730;10.010;2023-01-29T20:50:35;100908.88;;;2.19;100.00
20444;BME280;10381;53.730;10.010;2023-01-29T20:54:35;100903.56;;;2.21;100.00
20444;BME280;10381;53.730;10.010;2023-01-29T20:58:36;100900.03;;;2.22;100.00
20444;BME280;10381;53.730;10.010;2023-01-29T21:02:36;100884.25;;;2.23;100.00
20444;BME280;10381;53.730;10.010;2023-01-29T21:06:37;100872.78;;;2.26;100.00
20444;BME280;10381;53.730;10.010;2023-01-29T21:10:37;100862.19;;;2.29;100.00
20444;BME280;10381;53.730;10.010;2023-01-29T21:14:38;100872.66;;;2.29;100.00
20444;BME280;10381;53.730;10.010;2023-01-29T21:18:38;100860.41;;;2.29;100.00
20444;BME280;10381;53.730;10.010;2023-01-29T21:22:38;100856.63;;;2.35;100.00
20444;BME280;10381;53.730;10.010;2023-01-29T21:26:41;100841.63;;;2.39;100.00
20444;BME280;10381;53.730;10.010;2023-01-29T21:30:42;100831.16;;;2.39;100.00
20444;BME280;10381;53.730;10.010;2023-01-29T21:34:43;100826.72;;;2.41;100.00
20444;BME280;10381;53.730;10.010;2023-01-29T21:38:43;100820.47;;;2.43;100.00
20444;BME280;10381;53.730;10.010;2023-01-29T21:42:43;100823.69;;;2.48;100.00
20444;BME280;10381;53.730;10.010;2023-01-29T21:47:03;100814.72;;;2.52;100.00
20444;BME280;10381;53.730;10.010;2023-01-29T21:51:11;100811.00;;;2.56;100.00
20444;BME280;10381;53.730;10.010;2023-01-29T21:55:11;100805.59;;;2.60;100.00
20444;BME280;10381;53.730;10.010;2023-01-29T21:59:11;100802.00;;;2.62;100.00
20444;BME280;10381;53.730;10.010;2023-01-29T22:03:12;100799.03;;;2.68;100.00
20444;BME280;10381;53.730;10.010;2023-01-29T22:07:13;100782.31;;;2.71;100.00
20444;BME280;10381;53.730;10.010;2023-01-29T22:11:13;100761.91;;;2.62;100.00